< < Back
Terminal Aerodrome Forecast


Current Version              Previous Versions:   1  2  3  4  5  6  7  8  9  

Terminal Aerodrome Forecast

858
FTUS42 KFFC 231700
TAFAHN
TAF
KAHN 231733Z 2318/2418 26005KT P6SM SCT030 BKN060
     FM232000 27006KT P6SM VCSH BKN040
     FM240000 28004KT P6SM SCT040
     FM241000 24004KT 5SM BR SCT025
     FM241500 25008KT P6SM BKN030
     FM241700 27009G15KT 6SM -SHRA BKN035=



Latest METAR

257
SAUS70 KWBC 231754
MTRAHN
METAR KAHN 231751Z 26003KT 10SM FEW045 BKN080 30/21 A3007 RMK AO2 SLP174
T03000206 10317 20239 58015


USA.gov is the U.S. government's official web portal to all federal, state and local government web resources and services.